sensor_id;sensor_type;location;lat;lon;timestamp;P1;durP1;ratioP1;P2;durP2;ratioP2
70920;SDS011;58572;48.110;19.838;2024-02-16T00:00:13;14.43;;;7.32;;
70920;SDS011;58572;48.110;19.838;2024-02-16T00:02:43;12.00;;;6.70;;
70920;SDS011;58572;48.110;19.838;2024-02-16T00:05:11;15.15;;;6.78;;
70920;SDS011;58572;48.110;19.838;2024-02-16T00:07:38;12.50;;;7.18;;
70920;SDS011;58572;48.110;19.838;2024-02-16T00:10:06;9.93;;;5.70;;
70920;SDS011;58572;48.110;19.838;2024-02-16T00:12:35;11.18;;;5.63;;
70920;SDS011;58572;48.110;19.838;2024-02-16T00:15:02;9.63;;;5.50;;
70920;SDS011;58572;48.110;19.838;2024-02-16T00:17:30;11.68;;;7.00;;
70920;SDS011;58572;48.110;19.838;2024-02-16T00:20:00;16.85;;;7.22;;
70920;SDS011;58572;48.110;19.838;2024-02-16T00:22:27;14.75;;;7.03;;
70920;SDS011;58572;48.110;19.838;2024-02-16T00:24:53;12.25;;;6.68;;
70920;SDS011;58572;48.110;19.838;2024-02-16T00:27:21;11.52;;;6.57;;
70920;SDS011;58572;48.110;19.838;2024-02-16T00:29:47;16.65;;;7.57;;
70920;SDS011;58572;48.110;19.838;2024-02-16T00:32:15;11.80;;;7.32;;
70920;SDS011;58572;48.110;19.838;2024-02-16T00:34:42;12.90;;;7.30;;
70920;SDS011;58572;48.110;19.838;2024-02-16T00:37:11;11.40;;;7.30;;
70920;SDS011;58572;48.110;19.838;2024-02-16T00:39:38;12.60;;;6.93;;
70920;SDS011;58572;48.110;19.838;2024-02-16T00:42:06;13.07;;;6.75;;
70920;SDS011;58572;48.110;19.838;2024-02-16T00:44:33;12.90;;;7.60;;
70920;SDS011;58572;48.110;19.838;2024-02-16T00:47:00;13.50;;;7.90;;
70920;SDS011;58572;48.110;19.838;2024-02-16T00:49:27;15.30;;;7.78;;
70920;SDS011;58572;48.110;19.838;2024-02-16T00:51:54;13.63;;;7.22;;
70920;SDS011;58572;48.110;19.838;2024-02-16T00:54:23;12.68;;;6.85;;
70920;SDS011;58572;48.110;19.838;2024-02-16T00:56:50;11.48;;;6.15;;
70920;SDS011;58572;48.110;19.838;2024-02-16T00:59:17;12.35;;;6.60;;
70920;SDS011;58572;48.110;19.838;2024-02-16T01:01:45;11.55;;;6.70;;
70920;SDS011;58572;48.110;19.838;2024-02-16T01:04:12;13.88;;;7.05;;
70920;SDS011;58572;48.110;19.838;2024-02-16T01:06:38;11.90;;;6.82;;
70920;SDS011;58572;48.110;19.838;2024-02-16T01:09:05;17.02;;;7.53;;
70920;SDS011;58572;48.110;19.838;2024-02-16T01:11:34;12.43;;;7.13;;
70920;SDS011;58572;48.110;19.838;2024-02-16T01:14:02;12.95;;;6.65;;
70920;SDS011;58572;48.110;19.838;2024-02-16T01:16:29;16.73;;;8.05;;
70920;SDS011;58572;48.110;19.838;2024-02-16T01:18:56;13.63;;;7.78;;
70920;SDS011;58572;48.110;19.838;2024-02-16T01:21:23;17.10;;;7.88;;
70920;SDS011;58572;48.110;19.838;2024-02-16T01:23:50;17.13;;;10.15;;
70920;SDS011;58572;48.110;19.838;2024-02-16T01:26:16;21.95;;;9.95;;
70920;SDS011;58572;48.110;19.838;2024-02-16T01:28:45;21.63;;;9.75;;
70920;SDS011;58572;48.110;19.838;2024-02-16T01:31:12;20.00;;;11.20;;
70920;SDS011;58572;48.110;19.838;2024-02-16T01:33:39;18.92;;;9.77;;
70920;SDS011;58572;48.110;19.838;2024-02-16T01:36:06;17.52;;;8.85;;
70920;SDS011;58572;48.110;19.838;2024-02-16T01:38:33;16.98;;;8.73;;
70920;SDS011;58572;48.110;19.838;2024-02-16T01:41:01;17.77;;;9.45;;
70920;SDS011;58572;48.110;19.838;2024-02-16T01:43:28;18.27;;;9.40;;
70920;SDS011;58572;48.110;19.838;2024-02-16T01:45:56;17.02;;;9.27;;
70920;SDS011;58572;48.110;19.838;2024-02-16T01:48:25;17.90;;;8.70;;
70920;SDS011;58572;48.110;19.838;2024-02-16T01:50:52;18.15;;;8.48;;
70920;SDS011;58572;48.110;19.838;2024-02-16T01:53:20;17.70;;;9.50;;
70920;SDS011;58572;48.110;19.838;2024-02-16T01:55:48;16.85;;;9.90;;
70920;SDS011;58572;48.110;19.838;2024-02-16T01:58:16;15.77;;;9.13;;
70920;SDS011;58572;48.110;19.838;2024-02-16T02:00:43;18.02;;;9.13;;
70920;SDS011;58572;48.110;19.838;2024-02-16T02:03:12;18.40;;;9.82;;
70920;SDS011;58572;48.110;19.838;2024-02-16T02:05:43;20.40;;;10.77;;
70920;SDS011;58572;48.110;19.838;2024-02-16T02:08:12;18.05;;;9.40;;
70920;SDS011;58572;48.110;19.838;2024-02-16T02:13:06;15.48;;;7.68;;
70920;SDS011;58572;48.110;19.838;2024-02-16T02:15:33;16.92;;;8.43;;
70920;SDS011;58572;48.110;19.838;2024-02-16T02:18:00;14.27;;;7.38;;
70920;SDS011;58572;48.110;19.838;2024-02-16T02:20:29;23.85;;;12.00;;
70920;SDS011;58572;48.110;19.838;2024-02-16T02:22:57;21.15;;;11.63;;
70920;SDS011;58572;48.110;19.838;2024-02-16T02:25:24;23.35;;;11.07;;
70920;SDS011;58572;48.110;19.838;2024-02-16T02:27:52;19.40;;;10.85;;
70920;SDS011;58572;48.110;19.838;2024-02-16T02:30:19;24.23;;;11.63;;
70920;SDS011;58572;48.110;19.838;2024-02-16T02:32:46;20.45;;;10.68;;
70920;SDS011;58572;48.110;19.838;2024-02-16T02:35:14;21.50;;;10.70;;
70920;SDS011;58572;48.110;19.838;2024-02-16T02:37:42;22.40;;;12.55;;
70920;SDS011;58572;48.110;19.838;2024-02-16T02:40:11;24.45;;;12.00;;
70920;SDS011;58572;48.110;19.838;2024-02-16T02:42:38;24.25;;;12.10;;
70920;SDS011;58572;48.110;19.838;2024-02-16T02:45:06;25.17;;;12.60;;
70920;SDS011;58572;48.110;19.838;2024-02-16T02:47:34;26.45;;;11.35;;
70920;SDS011;58572;48.110;19.838;2024-02-16T02:50:01;23.00;;;11.10;;
70920;SDS011;58572;48.110;19.838;2024-02-16T02:52:27;22.73;;;11.43;;
70920;SDS011;58572;48.110;19.838;2024-02-16T02:54:54;19.10;;;10.43;;
70920;SDS011;58572;48.110;19.838;2024-02-16T02:57:23;21.67;;;10.68;;
70920;SDS011;58572;48.110;19.838;2024-02-16T02:59:50;24.15;;;12.57;;
70920;SDS011;58572;48.110;19.838;2024-02-16T03:02:17;23.83;;;11.68;;
70920;SDS011;58572;48.110;19.838;2024-02-16T03:04:44;30.30;;;14.13;;
70920;SDS011;58572;48.110;19.838;2024-02-16T03:07:11;35.67;;;18.45;;
70920;SDS011;58572;48.110;19.838;2024-02-16T03:09:40;37.92;;;18.20;;
70920;SDS011;58572;48.110;19.838;2024-02-16T03:12:08;33.65;;;16.05;;
70920;SDS011;58572;48.110;19.838;2024-02-16T03:14:38;34.65;;;15.02;;
70920;SDS011;58572;48.110;19.838;2024-02-16T03:17:05;34.17;;;15.85;;
70920;SDS011;58572;48.110;19.838;2024-02-16T03:19:31;34.28;;;15.77;;
70920;SDS011;58572;48.110;19.838;2024-02-16T03:21:59;29.95;;;14.40;;
70920;SDS011;58572;48.110;19.838;2024-02-16T03:24:26;28.90;;;14.23;;
70920;SDS011;58572;48.110;19.838;2024-02-16T03:26:53;27.27;;;13.98;;
70920;SDS011;58572;48.110;19.838;2024-02-16T03:29:20;29.20;;;14.80;;
70920;SDS011;58572;48.110;19.838;2024-02-16T03:31:48;26.05;;;13.50;;
70920;SDS011;58572;48.110;19.838;2024-02-16T03:34:16;26.70;;;13.30;;
70920;SDS011;58572;48.110;19.838;2024-02-16T03:36:43;25.30;;;12.85;;
70920;SDS011;58572;48.110;19.838;2024-02-16T03:39:10;24.50;;;13.07;;
70920;SDS011;58572;48.110;19.838;2024-02-16T03:41:38;23.58;;;12.85;;
70920;SDS011;58572;48.110;19.838;2024-02-16T03:44:04;23.63;;;12.20;;
70920;SDS011;58572;48.110;19.838;2024-02-16T03:46:31;24.70;;;12.23;;
70920;SDS011;58572;48.110;19.838;2024-02-16T03:49:00;24.90;;;13.95;;
70920;SDS011;58572;48.110;19.838;2024-02-16T03:51:27;30.65;;;15.32;;
70920;SDS011;58572;48.110;19.838;2024-02-16T03:53:54;27.08;;;13.82;;
70920;SDS011;58572;48.110;19.838;2024-02-16T03:56:21;35.45;;;16.27;;
70920;SDS011;58572;48.110;19.838;2024-02-16T03:58:48;27.83;;;14.73;;
70920;SDS011;58572;48.110;19.838;2024-02-16T04:01:15;30.38;;;14.77;;
70920;SDS011;58572;48.110;19.838;2024-02-16T04:03:42;29.90;;;14.60;;
70920;SDS011;58572;48.110;19.838;2024-02-16T04:06:10;28.63;;;13.32;;
70920;SDS011;58572;48.110;19.838;2024-02-16T04:08:37;26.88;;;14.13;;
70920;SDS011;58572;48.110;19.838;2024-02-16T04:11:05;33.30;;;17.73;;
70920;SDS011;58572;48.110;19.838;2024-02-16T04:13:32;34.47;;;17.45;;
70920;SDS011;58572;48.110;19.838;2024-02-16T04:15:59;52.55;;;22.15;;
70920;SDS011;58572;48.110;19.838;2024-02-16T04:18:26;38.92;;;18.73;;
70920;SDS011;58572;48.110;19.838;2024-02-16T04:20:53;37.75;;;17.27;;
70920;SDS011;58572;48.110;19.838;2024-02-16T04:23:21;33.35;;;15.95;;
70920;SDS011;58572;48.110;19.838;2024-02-16T04:25:48;30.80;;;15.63;;
70920;SDS011;58572;48.110;19.838;2024-02-16T04:28:15;39.50;;;19.30;;
70920;SDS011;58572;48.110;19.838;2024-02-16T04:30:43;35.58;;;16.63;;
70920;SDS011;58572;48.110;19.838;2024-02-16T04:33:10;35.95;;;19.65;;
70920;SDS011;58572;48.110;19.838;2024-02-16T04:35:38;37.78;;;18.88;;
70920;SDS011;58572;48.110;19.838;2024-02-16T04:38:05;32.67;;;16.63;;
70920;SDS011;58572;48.110;19.838;2024-02-16T04:40:35;26.05;;;13.77;;
70920;SDS011;58572;48.110;19.838;2024-02-16T04:43:03;23.70;;;12.60;;
70920;SDS011;58572;48.110;19.838;2024-02-16T04:45:30;29.27;;;13.05;;
70920;SDS011;58572;48.110;19.838;2024-02-16T04:48:01;26.13;;;13.48;;
70920;SDS011;58572;48.110;19.838;2024-02-16T04:50:29;23.88;;;12.20;;
70920;SDS011;58572;48.110;19.838;2024-02-16T04:52:56;28.75;;;14.65;;
70920;SDS011;58572;48.110;19.838;2024-02-16T04:55:23;33.72;;;16.58;;
70920;SDS011;58572;48.110;19.838;2024-02-16T04:57:52;29.17;;;14.95;;
70920;SDS011;58572;48.110;19.838;2024-02-16T05:00:19;29.77;;;12.93;;
70920;SDS011;58572;48.110;19.838;2024-02-16T05:02:46;22.20;;;12.80;;
70920;SDS011;58572;48.110;19.838;2024-02-16T05:05:13;28.52;;;13.45;;
70920;SDS011;58572;48.110;19.838;2024-02-16T05:07:41;26.10;;;14.63;;
70920;SDS011;58572;48.110;19.838;2024-02-16T05:10:09;26.15;;;13.73;;
70920;SDS011;58572;48.110;19.838;2024-02-16T05:12:36;24.58;;;12.95;;
70920;SDS011;58572;48.110;19.838;2024-02-16T05:15:05;27.25;;;12.27;;
70920;SDS011;58572;48.110;19.838;2024-02-16T05:17:32;22.75;;;11.65;;
70920;SDS011;58572;48.110;19.838;2024-02-16T05:19:59;22.73;;;11.43;;
70920;SDS011;58572;48.110;19.838;2024-02-16T05:22:26;22.67;;;11.57;;
70920;SDS011;58572;48.110;19.838;2024-02-16T05:24:54;22.65;;;11.23;;
70920;SDS011;58572;48.110;19.838;2024-02-16T05:27:21;25.55;;;11.98;;
70920;SDS011;58572;48.110;19.838;2024-02-16T05:29:49;23.65;;;11.38;;
70920;SDS011;58572;48.110;19.838;2024-02-16T05:32:17;25.50;;;12.25;;
70920;SDS011;58572;48.110;19.838;2024-02-16T05:34:44;24.48;;;11.55;;
70920;SDS011;58572;48.110;19.838;2024-02-16T05:37:11;22.67;;;12.07;;
70920;SDS011;58572;48.110;19.838;2024-02-16T05:39:40;27.02;;;14.02;;
70920;SDS011;58572;48.110;19.838;2024-02-16T05:42:19;27.90;;;13.55;;
70920;SDS011;58572;48.110;19.838;2024-02-16T05:44:47;30.20;;;14.40;;
70920;SDS011;58572;48.110;19.838;2024-02-16T05:47:15;22.63;;;12.90;;
70920;SDS011;58572;48.110;19.838;2024-02-16T05:49:43;24.02;;;11.77;;
70920;SDS011;58572;48.110;19.838;2024-02-16T05:52:12;25.00;;;12.63;;
70920;SDS011;58572;48.110;19.838;2024-02-16T05:54:45;25.45;;;13.13;;
70920;SDS011;58572;48.110;19.838;2024-02-16T05:57:13;21.42;;;11.85;;
70920;SDS011;58572;48.110;19.838;2024-02-16T05:59:40;23.63;;;11.15;;
70920;SDS011;58572;48.110;19.838;2024-02-16T06:02:08;21.40;;;11.93;;
70920;SDS011;58572;48.110;19.838;2024-02-16T06:04:36;21.92;;;11.70;;
70920;SDS011;58572;48.110;19.838;2024-02-16T06:07:05;23.08;;;11.25;;
70920;SDS011;58572;48.110;19.838;2024-02-16T06:09:32;19.25;;;10.82;;
70920;SDS011;58572;48.110;19.838;2024-02-16T06:12:00;20.58;;;11.60;;
70920;SDS011;58572;48.110;19.838;2024-02-16T06:14:32;27.73;;;14.27;;
70920;SDS011;58572;48.110;19.838;2024-02-16T06:16:59;38.20;;;17.58;;
70920;SDS011;58572;48.110;19.838;2024-02-16T06:19:26;40.38;;;19.52;;
70920;SDS011;58572;48.110;19.838;2024-02-16T06:21:53;46.13;;;20.50;;
70920;SDS011;58572;48.110;19.838;2024-02-16T06:24:22;40.85;;;19.70;;
70920;SDS011;58572;48.110;19.838;2024-02-16T06:26:50;38.28;;;18.63;;
70920;SDS011;58572;48.110;19.838;2024-02-16T06:29:17;44.40;;;19.55;;
70920;SDS011;58572;48.110;19.838;2024-02-16T06:31:44;52.17;;;23.30;;
70920;SDS011;58572;48.110;19.838;2024-02-16T06:34:12;62.35;;;27.63;;
70920;SDS011;58572;48.110;19.838;2024-02-16T06:36:39;65.13;;;29.75;;
70920;SDS011;58572;48.110;19.838;2024-02-16T06:39:07;63.13;;;30.02;;
70920;SDS011;58572;48.110;19.838;2024-02-16T06:41:36;78.25;;;34.63;;
70920;SDS011;58572;48.110;19.838;2024-02-16T06:44:04;102.82;;;45.30;;
70920;SDS011;58572;48.110;19.838;2024-02-16T06:46:31;124.25;;;51.67;;
70920;SDS011;58572;48.110;19.838;2024-02-16T06:48:58;113.38;;;48.65;;
70920;SDS011;58572;48.110;19.838;2024-02-16T06:51:25;105.63;;;46.25;;
70920;SDS011;58572;48.110;19.838;2024-02-16T06:53:53;116.13;;;49.97;;
70920;SDS011;58572;48.110;19.838;2024-02-16T06:56:21;122.78;;;50.63;;
70920;SDS011;58572;48.110;19.838;2024-02-16T06:58:49;114.05;;;49.08;;
70920;SDS011;58572;48.110;19.838;2024-02-16T07:01:17;103.70;;;43.40;;
70920;SDS011;58572;48.110;19.838;2024-02-16T07:03:44;94.55;;;42.45;;
70920;SDS011;58572;48.110;19.838;2024-02-16T07:06:11;120.97;;;50.28;;
70920;SDS011;58572;48.110;19.838;2024-02-16T07:08:39;128.40;;;52.67;;
70920;SDS011;58572;48.110;19.838;2024-02-16T07:11:06;126.07;;;54.20;;
70920;SDS011;58572;48.110;19.838;2024-02-16T07:13:33;123.40;;;53.80;;
70920;SDS011;58572;48.110;19.838;2024-02-16T07:16:02;85.15;;;37.80;;
70920;SDS011;58572;48.110;19.838;2024-02-16T07:18:32;99.18;;;42.38;;
70920;SDS011;58572;48.110;19.838;2024-02-16T07:20:59;114.68;;;45.00;;
70920;SDS011;58572;48.110;19.838;2024-02-16T07:23:27;121.88;;;50.10;;
70920;SDS011;58572;48.110;19.838;2024-02-16T07:25:54;126.72;;;52.95;;
70920;SDS011;58572;48.110;19.838;2024-02-16T07:28:21;102.85;;;43.17;;
70920;SDS011;58572;48.110;19.838;2024-02-16T07:30:49;98.22;;;41.58;;
70920;SDS011;58572;48.110;19.838;2024-02-16T07:33:17;95.20;;;40.97;;
70920;SDS011;58572;48.110;19.838;2024-02-16T07:35:44;76.95;;;34.35;;
70920;SDS011;58572;48.110;19.838;2024-02-16T07:38:11;64.88;;;31.98;;
70920;SDS011;58572;48.110;19.838;2024-02-16T07:40:38;85.03;;;38.38;;
70920;SDS011;58572;48.110;19.838;2024-02-16T07:43:05;89.53;;;38.80;;
70920;SDS011;58572;48.110;19.838;2024-02-16T07:45:33;87.93;;;38.58;;
70920;SDS011;58572;48.110;19.838;2024-02-16T07:48:00;94.88;;;41.33;;
70920;SDS011;58572;48.110;19.838;2024-02-16T07:50:31;72.57;;;31.83;;
70920;SDS011;58572;48.110;19.838;2024-02-16T07:52:58;45.03;;;22.50;;
70920;SDS011;58572;48.110;19.838;2024-02-16T07:55:25;81.85;;;37.85;;
70920;SDS011;58572;48.110;19.838;2024-02-16T07:57:52;76.88;;;37.03;;
70920;SDS011;58572;48.110;19.838;2024-02-16T08:00:19;51.95;;;25.77;;
70920;SDS011;58572;48.110;19.838;2024-02-16T08:02:47;22.73;;;12.85;;
70920;SDS011;58572;48.110;19.838;2024-02-16T08:05:14;21.92;;;11.98;;
70920;SDS011;58572;48.110;19.838;2024-02-16T08:07:45;24.30;;;12.10;;
70920;SDS011;58572;48.110;19.838;2024-02-16T08:10:13;21.50;;;10.05;;
70920;SDS011;58572;48.110;19.838;2024-02-16T08:12:41;21.73;;;10.23;;
70920;SDS011;58572;48.110;19.838;2024-02-16T08:15:08;19.30;;;9.77;;
70920;SDS011;58572;48.110;19.838;2024-02-16T08:17:36;19.67;;;9.32;;
70920;SDS011;58572;48.110;19.838;2024-02-16T08:22:30;17.50;;;8.95;;
70920;SDS011;58572;48.110;19.838;2024-02-16T08:24:59;20.17;;;9.30;;
70920;SDS011;58572;48.110;19.838;2024-02-16T08:27:26;17.88;;;9.93;;
70920;SDS011;58572;48.110;19.838;2024-02-16T08:29:53;15.73;;;8.98;;
70920;SDS011;58572;48.110;19.838;2024-02-16T08:32:20;17.60;;;9.48;;
70920;SDS011;58572;48.110;19.838;2024-02-16T08:34:47;20.67;;;9.35;;
70920;SDS011;58572;48.110;19.838;2024-02-16T08:37:15;17.40;;;9.40;;
70920;SDS011;58572;48.110;19.838;2024-02-16T08:39:42;17.88;;;9.23;;
70920;SDS011;58572;48.110;19.838;2024-02-16T08:42:11;15.65;;;8.35;;
70920;SDS011;58572;48.110;19.838;2024-02-16T08:44:38;16.33;;;8.82;;
70920;SDS011;58572;48.110;19.838;2024-02-16T08:47:05;18.38;;;9.25;;
70920;SDS011;58572;48.110;19.838;2024-02-16T08:52:00;13.85;;;8.57;;
70920;SDS011;58572;48.110;19.838;2024-02-16T08:54:27;17.17;;;8.07;;
70920;SDS011;58572;48.110;19.838;2024-02-16T08:56:54;16.85;;;8.98;;
70920;SDS011;58572;48.110;19.838;2024-02-16T08:59:23;13.85;;;7.78;;
70920;SDS011;58572;48.110;19.838;2024-02-16T09:01:50;14.57;;;7.65;;
70920;SDS011;58572;48.110;19.838;2024-02-16T09:04:17;12.82;;;6.53;;
70920;SDS011;58572;48.110;19.838;2024-02-16T09:06:44;12.68;;;6.78;;
70920;SDS011;58572;48.110;19.838;2024-02-16T09:09:11;11.02;;;6.55;;
70920;SDS011;58572;48.110;19.838;2024-02-16T09:11:40;11.35;;;7.20;;
70920;SDS011;58572;48.110;19.838;2024-02-16T09:14:07;8.77;;;5.32;;
70920;SDS011;58572;48.110;19.838;2024-02-16T09:16:35;11.30;;;6.22;;
70920;SDS011;58572;48.110;19.838;2024-02-16T09:19:02;8.48;;;5.13;;
70920;SDS011;58572;48.110;19.838;2024-02-16T09:21:29;7.25;;;4.50;;
70920;SDS011;58572;48.110;19.838;2024-02-16T09:23:56;6.95;;;3.42;;
70920;SDS011;58572;48.110;19.838;2024-02-16T09:26:26;5.30;;;2.90;;
70920;SDS011;58572;48.110;19.838;2024-02-16T09:28:55;3.72;;;2.13;;
70920;SDS011;58572;48.110;19.838;2024-02-16T09:31:23;7.35;;;3.15;;
70920;SDS011;58572;48.110;19.838;2024-02-16T09:33:52;5.68;;;4.03;;
70920;SDS011;58572;48.110;19.838;2024-02-16T09:36:19;6.80;;;4.25;;
70920;SDS011;58572;48.110;19.838;2024-02-16T09:38:46;7.82;;;4.30;;
70920;SDS011;58572;48.110;19.838;2024-02-16T09:41:14;6.25;;;3.72;;
70920;SDS011;58572;48.110;19.838;2024-02-16T09:43:42;7.32;;;3.58;;
70920;SDS011;58572;48.110;19.838;2024-02-16T09:46:09;6.28;;;4.10;;
70920;SDS011;58572;48.110;19.838;2024-02-16T09:48:36;7.13;;;4.15;;
70920;SDS011;58572;48.110;19.838;2024-02-16T09:51:10;5.25;;;3.45;;
70920;SDS011;58572;48.110;19.838;2024-02-16T09:53:37;5.82;;;3.55;;
70920;SDS011;58572;48.110;19.838;2024-02-16T09:56:06;6.40;;;3.90;;
70920;SDS011;58572;48.110;19.838;2024-02-16T09:58:35;4.95;;;3.42;;
70920;SDS011;58572;48.110;19.838;2024-02-16T10:01:02;5.88;;;4.00;;
70920;SDS011;58572;48.110;19.838;2024-02-16T10:03:29;19.23;;;10.30;;
70920;SDS011;58572;48.110;19.838;2024-02-16T10:06:04;19.80;;;10.57;;
70920;SDS011;58572;48.110;19.838;2024-02-16T10:08:33;17.02;;;10.07;;
70920;SDS011;58572;48.110;19.838;2024-02-16T10:11:01;17.20;;;10.20;;
70920;SDS011;58572;48.110;19.838;2024-02-16T10:13:29;18.50;;;9.27;;
70920;SDS011;58572;48.110;19.838;2024-02-16T10:16:06;19.15;;;10.80;;
70920;SDS011;58572;48.110;19.838;2024-02-16T10:18:34;20.13;;;12.02;;
70920;SDS011;58572;48.110;19.838;2024-02-16T10:21:02;23.05;;;12.60;;
70920;SDS011;58572;48.110;19.838;2024-02-16T10:23:29;14.35;;;8.73;;
70920;SDS011;58572;48.110;19.838;2024-02-16T10:25:59;11.18;;;5.53;;
70920;SDS011;58572;48.110;19.838;2024-02-16T10:28:27;7.70;;;4.25;;
70920;SDS011;58572;48.110;19.838;2024-02-16T10:30:57;7.15;;;5.07;;
70920;SDS011;58572;48.110;19.838;2024-02-16T10:33:26;9.15;;;5.15;;
70920;SDS011;58572;48.110;19.838;2024-02-16T10:35:55;17.02;;;10.20;;
70920;SDS011;58572;48.110;19.838;2024-02-16T10:38:24;17.25;;;8.88;;
70920;SDS011;58572;48.110;19.838;2024-02-16T10:40:52;20.10;;;10.25;;
70920;SDS011;58572;48.110;19.838;2024-02-16T10:43:21;19.52;;;10.23;;
70920;SDS011;58572;48.110;19.838;2024-02-16T10:45:49;20.08;;;10.63;;
70920;SDS011;58572;48.110;19.838;2024-02-16T10:48:18;20.83;;;10.50;;
70920;SDS011;58572;48.110;19.838;2024-02-16T10:53:17;18.75;;;9.65;;
70920;SDS011;58572;48.110;19.838;2024-02-16T10:55:48;19.85;;;9.93;;
70920;SDS011;58572;48.110;19.838;2024-02-16T10:58:16;19.23;;;10.52;;
70920;SDS011;58572;48.110;19.838;2024-02-16T11:03:21;10.93;;;5.68;;
70920;SDS011;58572;48.110;19.838;2024-02-16T11:05:50;22.70;;;11.20;;
70920;SDS011;58572;48.110;19.838;2024-02-16T11:08:18;20.30;;;11.85;;
70920;SDS011;58572;48.110;19.838;2024-02-16T11:10:55;20.50;;;11.05;;
70920;SDS011;58572;48.110;19.838;2024-02-16T11:13:23;21.38;;;11.80;;
70920;SDS011;58572;48.110;19.838;2024-02-16T11:15:59;22.27;;;11.70;;
70920;SDS011;58572;48.110;19.838;2024-02-16T11:18:27;20.10;;;12.02;;
70920;SDS011;58572;48.110;19.838;2024-02-16T11:20:55;21.17;;;11.10;;
70920;SDS011;58572;48.110;19.838;2024-02-16T11:23:27;20.10;;;11.80;;
70920;SDS011;58572;48.110;19.838;2024-02-16T11:25:58;19.73;;;11.40;;
70920;SDS011;58572;48.110;19.838;2024-02-16T11:28:27;20.23;;;11.70;;
70920;SDS011;58572;48.110;19.838;2024-02-16T11:33:22;18.75;;;11.13;;
70920;SDS011;58572;48.110;19.838;2024-02-16T11:35:53;17.25;;;10.07;;
70920;SDS011;58572;48.110;19.838;2024-02-16T11:38:21;17.25;;;10.40;;
70920;SDS011;58572;48.110;19.838;2024-02-16T11:40:55;17.90;;;10.88;;
70920;SDS011;58572;48.110;19.838;2024-02-16T11:43:23;15.93;;;9.93;;
70920;SDS011;58572;48.110;19.838;2024-02-16T11:45:50;16.10;;;10.45;;
70920;SDS011;58572;48.110;19.838;2024-02-16T11:48:23;17.55;;;11.32;;
70920;SDS011;58572;48.110;19.838;2024-02-16T11:50:58;18.13;;;10.82;;
70920;SDS011;58572;48.110;19.838;2024-02-16T11:53:26;19.15;;;11.32;;
70920;SDS011;58572;48.110;19.838;2024-02-16T11:55:54;16.33;;;10.00;;
70920;SDS011;58572;48.110;19.838;2024-02-16T11:58:21;16.27;;;9.95;;
70920;SDS011;58572;48.110;19.838;2024-02-16T12:00:49;19.80;;;11.82;;
70920;SDS011;58572;48.110;19.838;2024-02-16T12:03:20;17.75;;;11.25;;
70920;SDS011;58572;48.110;19.838;2024-02-16T12:05:52;17.65;;;10.43;;
70920;SDS011;58572;48.110;19.838;2024-02-16T12:08:20;16.80;;;9.55;;
70920;SDS011;58572;48.110;19.838;2024-02-16T12:10:48;17.10;;;9.93;;
70920;SDS011;58572;48.110;19.838;2024-02-16T12:13:16;17.23;;;9.55;;
70920;SDS011;58572;48.110;19.838;2024-02-16T12:15:44;14.27;;;8.77;;
70920;SDS011;58572;48.110;19.838;2024-02-16T12:20:45;13.13;;;9.02;;
70920;SDS011;58572;48.110;19.838;2024-02-16T12:23:26;17.60;;;10.02;;
70920;SDS011;58572;48.110;19.838;2024-02-16T12:25:59;15.90;;;9.48;;
70920;SDS011;58572;48.110;19.838;2024-02-16T12:28:28;15.68;;;10.02;;
70920;SDS011;58572;48.110;19.838;2024-02-16T12:30:57;18.33;;;9.73;;
70920;SDS011;58572;48.110;19.838;2024-02-16T12:33:25;15.85;;;9.15;;
70920;SDS011;58572;48.110;19.838;2024-02-16T12:35:52;16.45;;;9.57;;
70920;SDS011;58572;48.110;19.838;2024-02-16T12:38:20;14.35;;;9.38;;
70920;SDS011;58572;48.110;19.838;2024-02-16T12:40:47;13.07;;;7.82;;
70920;SDS011;58572;48.110;19.838;2024-02-16T12:43:15;15.13;;;8.13;;
70920;SDS011;58572;48.110;19.838;2024-02-16T12:45:43;18.92;;;9.38;;
70920;SDS011;58572;48.110;19.838;2024-02-16T12:48:10;16.13;;;8.98;;
70920;SDS011;58572;48.110;19.838;2024-02-16T12:50:39;13.90;;;7.47;;
70920;SDS011;58572;48.110;19.838;2024-02-16T12:55:35;13.80;;;7.70;;
70920;SDS011;58572;48.110;19.838;2024-02-16T12:58:02;13.80;;;8.13;;
70920;SDS011;58572;48.110;19.838;2024-02-16T13:00:29;13.65;;;8.93;;
70920;SDS011;58572;48.110;19.838;2024-02-16T13:02:56;12.02;;;7.35;;
70920;SDS011;58572;48.110;19.838;2024-02-16T13:05:23;12.13;;;7.55;;
70920;SDS011;58572;48.110;19.838;2024-02-16T13:07:51;12.30;;;7.07;;
70920;SDS011;58572;48.110;19.838;2024-02-16T13:10:18;10.65;;;7.80;;
70920;SDS011;58572;48.110;19.838;2024-02-16T13:12:46;11.50;;;6.72;;
70920;SDS011;58572;48.110;19.838;2024-02-16T13:15:13;8.68;;;6.00;;
70920;SDS011;58572;48.110;19.838;2024-02-16T13:17:40;8.63;;;6.30;;
70920;SDS011;58572;48.110;19.838;2024-02-16T13:20:07;10.32;;;6.43;;
70920;SDS011;58572;48.110;19.838;2024-02-16T13:22:35;12.15;;;5.35;;
70920;SDS011;58572;48.110;19.838;2024-02-16T13:25:03;9.60;;;5.75;;
70920;SDS011;58572;48.110;19.838;2024-02-16T13:27:30;9.10;;;5.50;;
70920;SDS011;58572;48.110;19.838;2024-02-16T13:29:59;9.15;;;5.45;;
70920;SDS011;58572;48.110;19.838;2024-02-16T13:32:26;8.13;;;5.70;;
70920;SDS011;58572;48.110;19.838;2024-02-16T13:34:53;9.05;;;5.53;;
70920;SDS011;58572;48.110;19.838;2024-02-16T13:37:20;8.85;;;5.35;;
70920;SDS011;58572;48.110;19.838;2024-02-16T13:39:47;9.90;;;5.30;;
70920;SDS011;58572;48.110;19.838;2024-02-16T13:42:15;10.07;;;5.22;;
70920;SDS011;58572;48.110;19.838;2024-02-16T13:44:42;7.53;;;4.78;;
70920;SDS011;58572;48.110;19.838;2024-02-16T13:47:11;10.38;;;6.47;;
70920;SDS011;58572;48.110;19.838;2024-02-16T13:49:38;8.18;;;5.43;;
70920;SDS011;58572;48.110;19.838;2024-02-16T13:52:05;7.40;;;5.30;;
70920;SDS011;58572;48.110;19.838;2024-02-16T13:54:33;9.90;;;5.53;;
70920;SDS011;58572;48.110;19.838;2024-02-16T13:57:01;10.10;;;5.55;;
70920;SDS011;58572;48.110;19.838;2024-02-16T14:01:56;8.35;;;4.80;;
70920;SDS011;58572;48.110;19.838;2024-02-16T14:04:25;9.93;;;5.10;;
70920;SDS011;58572;48.110;19.838;2024-02-16T14:06:53;9.80;;;5.50;;
70920;SDS011;58572;48.110;19.838;2024-02-16T14:09:20;10.45;;;5.65;;
70920;SDS011;58572;48.110;19.838;2024-02-16T14:11:47;9.20;;;5.60;;
70920;SDS011;58572;48.110;19.838;2024-02-16T14:14:14;11.02;;;5.57;;
70920;SDS011;58572;48.110;19.838;2024-02-16T14:16:41;8.65;;;4.63;;
70920;SDS011;58572;48.110;19.838;2024-02-16T14:19:09;11.10;;;5.88;;
70920;SDS011;58572;48.110;19.838;2024-02-16T14:21:37;8.85;;;4.90;;
70920;SDS011;58572;48.110;19.838;2024-02-16T14:24:05;9.23;;;6.10;;
70920;SDS011;58572;48.110;19.838;2024-02-16T14:26:35;8.68;;;5.95;;
70920;SDS011;58572;48.110;19.838;2024-02-16T14:29:03;8.93;;;5.10;;
70920;SDS011;58572;48.110;19.838;2024-02-16T14:31:31;10.70;;;5.25;;
70920;SDS011;58572;48.110;19.838;2024-02-16T14:33:59;8.25;;;4.72;;
70920;SDS011;58572;48.110;19.838;2024-02-16T14:36:26;7.85;;;4.93;;
70920;SDS011;58572;48.110;19.838;2024-02-16T14:38:55;12.20;;;5.95;;
70920;SDS011;58572;48.110;19.838;2024-02-16T14:41:22;10.32;;;5.55;;